sensor_id;sensor_type;location;lat;lon;timestamp;temperature;humidity
41116;DHT22;26861;51.824;4.682;2024-02-23T00:02:13;15.50;66.20
41116;DHT22;26861;51.824;4.682;2024-02-23T00:04:39;15.50;66.60
41116;DHT22;26861;51.824;4.682;2024-02-23T00:07:04;15.50;66.60
41116;DHT22;26861;51.824;4.682;2024-02-23T00:09:30;15.50;66.60
41116;DHT22;26861;51.824;4.682;2024-02-23T00:11:56;15.40;66.50
41116;DHT22;26861;51.824;4.682;2024-02-23T00:14:21;15.20;66.70
41116;DHT22;26861;51.824;4.682;2024-02-23T00:16:47;15.50;66.60
41116;DHT22;26861;51.824;4.682;2024-02-23T00:19:13;15.40;66.40
41116;DHT22;26861;51.824;4.682;2024-02-23T00:21:38;15.40;66.40
41116;DHT22;26861;51.824;4.682;2024-02-23T00:24:05;15.40;66.50
41116;DHT22;26861;51.824;4.682;2024-02-23T00:26:31;15.40;65.70
41116;DHT22;26861;51.824;4.682;2024-02-23T00:28:56;15.40;66.40
41116;DHT22;26861;51.824;4.682;2024-02-23T00:31:22;15.40;66.40
41116;DHT22;26861;51.824;4.682;2024-02-23T00:33:47;15.30;66.40
41116;DHT22;26861;51.824;4.682;2024-02-23T00:36:13;15.40;66.60
41116;DHT22;26861;51.824;4.682;2024-02-23T00:38:38;15.30;66.40
41116;DHT22;26861;51.824;4.682;2024-02-23T00:41:04;15.30;66.60
41116;DHT22;26861;51.824;4.682;2024-02-23T00:43:30;15.30;66.50
41116;DHT22;26861;51.824;4.682;2024-02-23T00:46:03;15.30;66.50
41116;DHT22;26861;51.824;4.682;2024-02-23T00:48:28;15.40;66.00
41116;DHT22;26861;51.824;4.682;2024-02-23T00:50:54;15.30;66.60
41116;DHT22;26861;51.824;4.682;2024-02-23T00:53:19;15.30;66.50
41116;DHT22;26861;51.824;4.682;2024-02-23T00:55:45;15.30;66.40
41116;DHT22;26861;51.824;4.682;2024-02-23T00:58:11;15.30;66.30
41116;DHT22;26861;51.824;4.682;2024-02-23T01:00:36;15.40;66.30
41116;DHT22;26861;51.824;4.682;2024-02-23T01:03:02;15.30;66.10
41116;DHT22;26861;51.824;4.682;2024-02-23T01:05:27;15.30;66.30
41116;DHT22;26861;51.824;4.682;2024-02-23T01:07:53;15.30;66.50
41116;DHT22;26861;51.824;4.682;2024-02-23T01:10:18;15.30;66.20
41116;DHT22;26861;51.824;4.682;2024-02-23T01:12:44;15.30;66.50
41116;DHT22;26861;51.824;4.682;2024-02-23T01:15:09;15.30;66.60
41116;DHT22;26861;51.824;4.682;2024-02-23T01:17:35;15.20;66.60
41116;DHT22;26861;51.824;4.682;2024-02-23T01:20:00;15.20;66.30
41116;DHT22;26861;51.824;4.682;2024-02-23T01:22:26;15.30;66.30
41116;DHT22;26861;51.824;4.682;2024-02-23T01:24:51;15.20;66.50
41116;DHT22;26861;51.824;4.682;2024-02-23T01:27:17;15.20;66.20
41116;DHT22;26861;51.824;4.682;2024-02-23T01:29:43;15.20;66.50
41116;DHT22;26861;51.824;4.682;2024-02-23T01:32:09;15.20;66.60
41116;DHT22;26861;51.824;4.682;2024-02-23T01:34:34;15.10;66.40
41116;DHT22;26861;51.824;4.682;2024-02-23T01:37:00;15.20;66.40
41116;DHT22;26861;51.824;4.682;2024-02-23T01:39:25;15.20;66.50
41116;DHT22;26861;51.824;4.682;2024-02-23T01:41:51;15.50;66.60
41116;DHT22;26861;51.824;4.682;2024-02-23T01:44:16;15.10;66.30
41116;DHT22;26861;51.824;4.682;2024-02-23T01:46:42;17.10;67.00
41116;DHT22;26861;51.824;4.682;2024-02-23T01:49:08;15.10;66.40
41116;DHT22;26861;51.824;4.682;2024-02-23T01:51:34;15.30;66.40
41116;DHT22;26861;51.824;4.682;2024-02-23T01:54:00;15.10;65.90
41116;DHT22;26861;51.824;4.682;2024-02-23T01:56:25;15.20;66.20
41116;DHT22;26861;51.824;4.682;2024-02-23T01:58:51;15.10;66.20
41116;DHT22;26861;51.824;4.682;2024-02-23T02:01:17;15.20;65.80
41116;DHT22;26861;51.824;4.682;2024-02-23T02:03:43;15.20;66.50
41116;DHT22;26861;51.824;4.682;2024-02-23T02:06:09;15.10;66.20
41116;DHT22;26861;51.824;4.682;2024-02-23T02:08:35;15.10;66.20
41116;DHT22;26861;51.824;4.682;2024-02-23T02:11:01;15.10;66.30
41116;DHT22;26861;51.824;4.682;2024-02-23T02:13:29;15.00;65.70
41116;DHT22;26861;51.824;4.682;2024-02-23T02:15:55;15.20;61.30
41116;DHT22;26861;51.824;4.682;2024-02-23T02:18:21;15.10;65.90
41116;DHT22;26861;51.824;4.682;2024-02-23T02:20:50;15.10;65.80
41116;DHT22;26861;51.824;4.682;2024-02-23T02:23:16;15.10;66.10
41116;DHT22;26861;51.824;4.682;2024-02-23T02:25:41;15.10;65.90
41116;DHT22;26861;51.824;4.682;2024-02-23T02:28:07;15.10;65.80
41116;DHT22;26861;51.824;4.682;2024-02-23T02:30:33;15.00;65.70
41116;DHT22;26861;51.824;4.682;2024-02-23T02:32:58;15.10;65.90
41116;DHT22;26861;51.824;4.682;2024-02-23T02:35:24;15.00;65.20
41116;DHT22;26861;51.824;4.682;2024-02-23T02:37:49;15.00;65.50
41116;DHT22;26861;51.824;4.682;2024-02-23T02:40:16;15.10;65.90
41116;DHT22;26861;51.824;4.682;2024-02-23T02:42:41;15.10;65.70
41116;DHT22;26861;51.824;4.682;2024-02-23T02:45:07;15.10;65.70
41116;DHT22;26861;51.824;4.682;2024-02-23T02:47:32;15.00;65.20
41116;DHT22;26861;51.824;4.682;2024-02-23T02:49:58;15.00;66.10
41116;DHT22;26861;51.824;4.682;2024-02-23T02:52:23;14.90;65.80
41116;DHT22;26861;51.824;4.682;2024-02-23T02:54:49;14.90;66.40
41116;DHT22;26861;51.824;4.682;2024-02-23T02:57:15;14.90;66.10
41116;DHT22;26861;51.824;4.682;2024-02-23T02:59:40;15.00;66.40
41116;DHT22;26861;51.824;4.682;2024-02-23T03:02:06;14.90;65.40
41116;DHT22;26861;51.824;4.682;2024-02-23T03:04:31;14.80;66.20
41116;DHT22;26861;51.824;4.682;2024-02-23T03:06:57;15.00;65.80
41116;DHT22;26861;51.824;4.682;2024-02-23T03:09:23;14.90;66.40
41116;DHT22;26861;51.824;4.682;2024-02-23T03:11:49;14.90;66.20
41116;DHT22;26861;51.824;4.682;2024-02-23T03:14:15;14.90;66.30
41116;DHT22;26861;51.824;4.682;2024-02-23T03:16:42;15.00;66.00
41116;DHT22;26861;51.824;4.682;2024-02-23T03:19:08;14.90;66.20
41116;DHT22;26861;51.824;4.682;2024-02-23T03:21:33;15.00;66.40
41116;DHT22;26861;51.824;4.682;2024-02-23T03:23:59;14.90;66.30
41116;DHT22;26861;51.824;4.682;2024-02-23T03:26:24;14.80;66.00
41116;DHT22;26861;51.824;4.682;2024-02-23T03:28:50;14.90;66.10
41116;DHT22;26861;51.824;4.682;2024-02-23T03:31:15;14.90;66.10
41116;DHT22;26861;51.824;4.682;2024-02-23T03:33:41;14.90;65.90
41116;DHT22;26861;51.824;4.682;2024-02-23T03:36:06;14.80;65.60
41116;DHT22;26861;51.824;4.682;2024-02-23T03:38:32;14.90;65.40
41116;DHT22;26861;51.824;4.682;2024-02-23T03:40:59;14.80;65.60
41116;DHT22;26861;51.824;4.682;2024-02-23T03:43:25;14.80;65.90
41116;DHT22;26861;51.824;4.682;2024-02-23T03:45:50;14.80;65.50
41116;DHT22;26861;51.824;4.682;2024-02-23T03:48:16;14.80;66.00
41116;DHT22;26861;51.824;4.682;2024-02-23T03:50:41;15.00;65.80
41116;DHT22;26861;51.824;4.682;2024-02-23T03:53:06;14.80;65.90
41116;DHT22;26861;51.824;4.682;2024-02-23T03:55:32;14.90;66.00
41116;DHT22;26861;51.824;4.682;2024-02-23T03:57:57;14.70;65.80
41116;DHT22;26861;51.824;4.682;2024-02-23T04:00:23;14.80;65.80
41116;DHT22;26861;51.824;4.682;2024-02-23T04:02:49;14.80;65.50
41116;DHT22;26861;51.824;4.682;2024-02-23T04:05:14;14.80;65.50
41116;DHT22;26861;51.824;4.682;2024-02-23T04:07:40;14.80;65.60
41116;DHT22;26861;51.824;4.682;2024-02-23T04:10:06;14.70;65.60
41116;DHT22;26861;51.824;4.682;2024-02-23T04:12:31;14.70;63.90
41116;DHT22;26861;51.824;4.682;2024-02-23T04:14:59;14.80;63.10
41116;DHT22;26861;51.824;4.682;2024-02-23T04:17:24;14.70;66.00
41116;DHT22;26861;51.824;4.682;2024-02-23T04:19:50;14.70;65.70
41116;DHT22;26861;51.824;4.682;2024-02-23T04:22:15;14.70;65.40
41116;DHT22;26861;51.824;4.682;2024-02-23T04:24:41;14.70;65.50
41116;DHT22;26861;51.824;4.682;2024-02-23T04:27:07;14.70;65.20
41116;DHT22;26861;51.824;4.682;2024-02-23T04:29:33;14.70;65.40
41116;DHT22;26861;51.824;4.682;2024-02-23T04:32:02;14.50;64.50
41116;DHT22;26861;51.824;4.682;2024-02-23T04:34:27;14.70;60.80
41116;DHT22;26861;51.824;4.682;2024-02-23T04:36:53;14.70;65.30
41116;DHT22;26861;51.824;4.682;2024-02-23T04:39:19;14.60;65.70
41116;DHT22;26861;51.824;4.682;2024-02-23T04:41:45;14.60;65.30
41116;DHT22;26861;51.824;4.682;2024-02-23T04:44:10;14.70;65.40
41116;DHT22;26861;51.824;4.682;2024-02-23T04:46:36;14.60;65.60
41116;DHT22;26861;51.824;4.682;2024-02-23T04:49:01;15.00;65.50
41116;DHT22;26861;51.824;4.682;2024-02-23T04:51:27;14.60;65.60
41116;DHT22;26861;51.824;4.682;2024-02-23T04:53:53;14.60;65.70
41116;DHT22;26861;51.824;4.682;2024-02-23T04:56:18;14.60;65.40
41116;DHT22;26861;51.824;4.682;2024-02-23T04:58:44;14.60;65.20
41116;DHT22;26861;51.824;4.682;2024-02-23T05:01:10;14.70;65.20
41116;DHT22;26861;51.824;4.682;2024-02-23T05:03:36;14.60;65.20
41116;DHT22;26861;51.824;4.682;2024-02-23T05:06:02;14.70;65.30
41116;DHT22;26861;51.824;4.682;2024-02-23T05:08:27;14.60;64.80
41116;DHT22;26861;51.824;4.682;2024-02-23T05:10:55;14.60;65.40
41116;DHT22;26861;51.824;4.682;2024-02-23T05:13:21;14.80;65.10
41116;DHT22;26861;51.824;4.682;2024-02-23T05:15:46;14.80;65.10
41116;DHT22;26861;51.824;4.682;2024-02-23T05:18:12;14.60;65.00
41116;DHT22;26861;51.824;4.682;2024-02-23T05:20:37;14.60;65.30
41116;DHT22;26861;51.824;4.682;2024-02-23T05:23:03;14.70;65.30
41116;DHT22;26861;51.824;4.682;2024-02-23T05:25:28;14.60;64.40
41116;DHT22;26861;51.824;4.682;2024-02-23T05:27:54;14.60;64.90
41116;DHT22;26861;51.824;4.682;2024-02-23T05:30:19;14.60;64.90
41116;DHT22;26861;51.824;4.682;2024-02-23T05:32:44;14.60;65.30
41116;DHT22;26861;51.824;4.682;2024-02-23T05:35:10;14.70;66.00
41116;DHT22;26861;51.824;4.682;2024-02-23T05:37:36;14.60;65.00
41116;DHT22;26861;51.824;4.682;2024-02-23T05:40:03;14.60;65.40
41116;DHT22;26861;51.824;4.682;2024-02-23T05:42:33;14.60;65.30
41116;DHT22;26861;51.824;4.682;2024-02-23T05:44:58;14.60;65.20
41116;DHT22;26861;51.824;4.682;2024-02-23T05:47:23;14.60;65.10
41116;DHT22;26861;51.824;4.682;2024-02-23T05:49:50;14.60;65.40
41116;DHT22;26861;51.824;4.682;2024-02-23T05:52:15;14.60;65.30
41116;DHT22;26861;51.824;4.682;2024-02-23T05:54:41;14.60;65.30
41116;DHT22;26861;51.824;4.682;2024-02-23T05:57:06;14.60;65.00
41116;DHT22;26861;51.824;4.682;2024-02-23T05:59:32;14.60;65.20
41116;DHT22;26861;51.824;4.682;2024-02-23T06:01:57;14.60;64.90
41116;DHT22;26861;51.824;4.682;2024-02-23T06:04:23;14.60;65.20
41116;DHT22;26861;51.824;4.682;2024-02-23T06:06:49;14.60;65.70
41116;DHT22;26861;51.824;4.682;2024-02-23T06:09:14;14.60;65.30
41116;DHT22;26861;51.824;4.682;2024-02-23T06:11:41;14.60;65.40
41116;DHT22;26861;51.824;4.682;2024-02-23T06:14:07;14.70;65.30
41116;DHT22;26861;51.824;4.682;2024-02-23T06:16:33;14.70;65.20
41116;DHT22;26861;51.824;4.682;2024-02-23T06:18:58;14.60;65.20
41116;DHT22;26861;51.824;4.682;2024-02-23T06:21:24;14.70;65.50
41116;DHT22;26861;51.824;4.682;2024-02-23T06:23:49;14.50;65.30
41116;DHT22;26861;51.824;4.682;2024-02-23T06:26:15;14.60;65.30
41116;DHT22;26861;51.824;4.682;2024-02-23T06:28:40;14.60;65.10
41116;DHT22;26861;51.824;4.682;2024-02-23T06:31:09;14.60;61.40
41116;DHT22;26861;51.824;4.682;2024-02-23T06:33:35;14.50;65.00
41116;DHT22;26861;51.824;4.682;2024-02-23T06:36:00;14.60;65.30
41116;DHT22;26861;51.824;4.682;2024-02-23T06:38:26;14.60;65.20
41116;DHT22;26861;51.824;4.682;2024-02-23T06:40:52;14.50;65.40
41116;DHT22;26861;51.824;4.682;2024-02-23T06:43:18;14.60;65.00
41116;DHT22;26861;51.824;4.682;2024-02-23T06:45:43;14.60;65.10
41116;DHT22;26861;51.824;4.682;2024-02-23T06:48:08;14.60;64.90
41116;DHT22;26861;51.824;4.682;2024-02-23T06:50:35;14.50;64.90
41116;DHT22;26861;51.824;4.682;2024-02-23T06:53:00;14.50;65.20
41116;DHT22;26861;51.824;4.682;2024-02-23T06:55:26;14.50;65.00
41116;DHT22;26861;51.824;4.682;2024-02-23T06:57:51;14.50;65.00
41116;DHT22;26861;51.824;4.682;2024-02-23T07:00:17;14.60;65.00
41116;DHT22;26861;51.824;4.682;2024-02-23T07:02:42;14.50;64.40
41116;DHT22;26861;51.824;4.682;2024-02-23T07:05:08;14.50;65.00
41116;DHT22;26861;51.824;4.682;2024-02-23T07:07:33;14.40;64.10
41116;DHT22;26861;51.824;4.682;2024-02-23T07:09:59;14.50;65.00
41116;DHT22;26861;51.824;4.682;2024-02-23T07:12:25;14.50;65.00
41116;DHT22;26861;51.824;4.682;2024-02-23T07:14:53;14.50;65.20
41116;DHT22;26861;51.824;4.682;2024-02-23T07:17:18;14.50;65.40
41116;DHT22;26861;51.824;4.682;2024-02-23T07:19:44;14.50;65.50
41116;DHT22;26861;51.824;4.682;2024-02-23T07:22:10;14.40;65.50
41116;DHT22;26861;51.824;4.682;2024-02-23T07:24:39;14.40;65.60
41116;DHT22;26861;51.824;4.682;2024-02-23T07:27:04;14.50;66.10
41116;DHT22;26861;51.824;4.682;2024-02-23T07:29:30;14.40;65.80
41116;DHT22;26861;51.824;4.682;2024-02-23T07:31:55;14.50;65.60
41116;DHT22;26861;51.824;4.682;2024-02-23T07:34:21;14.40;65.60
41116;DHT22;26861;51.824;4.682;2024-02-23T07:36:46;14.40;66.10
41116;DHT22;26861;51.824;4.682;2024-02-23T07:39:12;14.50;66.20
41116;DHT22;26861;51.824;4.682;2024-02-23T07:41:37;14.80;66.30
41116;DHT22;26861;51.824;4.682;2024-02-23T07:44:02;14.40;66.00
41116;DHT22;26861;51.824;4.682;2024-02-23T07:46:28;14.50;65.60
41116;DHT22;26861;51.824;4.682;2024-02-23T07:48:53;14.40;66.00
41116;DHT22;26861;51.824;4.682;2024-02-23T07:51:19;14.50;66.10
41116;DHT22;26861;51.824;4.682;2024-02-23T07:53:45;14.40;66.00
41116;DHT22;26861;51.824;4.682;2024-02-23T07:56:10;14.50;65.70
41116;DHT22;26861;51.824;4.682;2024-02-23T07:58:37;14.40;65.80
41116;DHT22;26861;51.824;4.682;2024-02-23T08:01:02;14.50;66.10
41116;DHT22;26861;51.824;4.682;2024-02-23T08:03:28;14.50;64.70
41116;DHT22;26861;51.824;4.682;2024-02-23T08:05:53;14.40;65.70
41116;DHT22;26861;51.824;4.682;2024-02-23T08:08:19;14.40;66.00
41116;DHT22;26861;51.824;4.682;2024-02-23T08:10:45;14.50;65.70
41116;DHT22;26861;51.824;4.682;2024-02-23T08:13:10;14.40;65.90
41116;DHT22;26861;51.824;4.682;2024-02-23T08:15:36;14.50;65.60
41116;DHT22;26861;51.824;4.682;2024-02-23T08:18:01;14.40;66.00
41116;DHT22;26861;51.824;4.682;2024-02-23T08:20:27;14.50;65.70
41116;DHT22;26861;51.824;4.682;2024-02-23T08:22:52;14.40;65.60
41116;DHT22;26861;51.824;4.682;2024-02-23T08:25:18;14.40;65.90
41116;DHT22;26861;51.824;4.682;2024-02-23T08:27:43;14.40;65.50
41116;DHT22;26861;51.824;4.682;2024-02-23T08:30:09;14.50;66.10
41116;DHT22;26861;51.824;4.682;2024-02-23T08:32:36;14.40;64.60
41116;DHT22;26861;51.824;4.682;2024-02-23T08:35:01;14.40;65.90
41116;DHT22;26861;51.824;4.682;2024-02-23T08:37:27;14.40;65.40
41116;DHT22;26861;51.824;4.682;2024-02-23T08:39:53;14.30;65.60
41116;DHT22;26861;51.824;4.682;2024-02-23T08:42:19;14.40;65.80
41116;DHT22;26861;51.824;4.682;2024-02-23T08:44:45;14.40;65.80
41116;DHT22;26861;51.824;4.682;2024-02-23T08:47:10;14.40;66.00
41116;DHT22;26861;51.824;4.682;2024-02-23T08:49:36;14.40;65.70
41116;DHT22;26861;51.824;4.682;2024-02-23T08:52:01;14.40;65.80
41116;DHT22;26861;51.824;4.682;2024-02-23T08:54:27;14.40;65.60
41116;DHT22;26861;51.824;4.682;2024-02-23T08:56:53;14.40;65.50
41116;DHT22;26861;51.824;4.682;2024-02-23T08:59:18;14.40;65.70
41116;DHT22;26861;51.824;4.682;2024-02-23T09:01:44;14.40;65.20
41116;DHT22;26861;51.824;4.682;2024-02-23T09:04:09;14.40;65.60
41116;DHT22;26861;51.824;4.682;2024-02-23T09:06:35;14.20;65.50
41116;DHT22;26861;51.824;4.682;2024-02-23T09:09:01;14.30;65.10
41116;DHT22;26861;51.824;4.682;2024-02-23T09:11:26;12.90;64.30
41116;DHT22;26861;51.824;4.682;2024-02-23T09:13:52;14.30;65.40
41116;DHT22;26861;51.824;4.682;2024-02-23T09:16:17;14.30;65.50
41116;DHT22;26861;51.824;4.682;2024-02-23T09:18:44;14.60;65.20
41116;DHT22;26861;51.824;4.682;2024-02-23T09:21:09;14.50;65.20
41116;DHT22;26861;51.824;4.682;2024-02-23T09:23:35;14.30;65.10
41116;DHT22;26861;51.824;4.682;2024-02-23T09:26:01;14.30;65.50
41116;DHT22;26861;51.824;4.682;2024-02-23T09:28:26;14.30;65.20
41116;DHT22;26861;51.824;4.682;2024-02-23T09:30:52;14.30;65.20
41116;DHT22;26861;51.824;4.682;2024-02-23T09:33:17;14.30;65.10
41116;DHT22;26861;51.824;4.682;2024-02-23T09:35:42;14.50;65.20
41116;DHT22;26861;51.824;4.682;2024-02-23T09:38:08;14.30;65.20
41116;DHT22;26861;51.824;4.682;2024-02-23T09:40:33;14.30;65.20
41116;DHT22;26861;51.824;4.682;2024-02-23T09:42:59;14.40;65.20
41116;DHT22;26861;51.824;4.682;2024-02-23T09:45:25;14.20;65.20
41116;DHT22;26861;51.824;4.682;2024-02-23T09:47:53;14.30;65.20
41116;DHT22;26861;51.824;4.682;2024-02-23T09:50:18;14.30;65.40
41116;DHT22;26861;51.824;4.682;2024-02-23T09:52:46;14.20;65.20
41116;DHT22;26861;51.824;4.682;2024-02-23T09:55:12;14.20;65.10
41116;DHT22;26861;51.824;4.682;2024-02-23T09:57:38;14.20;64.70
41116;DHT22;26861;51.824;4.682;2024-02-23T10:00:04;14.10;65.50
41116;DHT22;26861;51.824;4.682;2024-02-23T10:02:31;14.20;64.90
41116;DHT22;26861;51.824;4.682;2024-02-23T10:04:58;14.20;65.30
41116;DHT22;26861;51.824;4.682;2024-02-23T10:07:25;14.20;64.70
41116;DHT22;26861;51.824;4.682;2024-02-23T10:09:53;14.20;65.20
41116;DHT22;26861;51.824;4.682;2024-02-23T10:12:18;14.10;65.20
41116;DHT22;26861;51.824;4.682;2024-02-23T10:14:44;14.10;64.90
41116;DHT22;26861;51.824;4.682;2024-02-23T10:17:09;14.10;65.30
41116;DHT22;26861;51.824;4.682;2024-02-23T10:19:34;14.10;64.80
41116;DHT22;26861;51.824;4.682;2024-02-23T10:22:01;14.10;65.40
41116;DHT22;26861;51.824;4.682;2024-02-23T10:24:27;14.10;65.10
41116;DHT22;26861;51.824;4.682;2024-02-23T10:26:52;14.10;65.60
41116;DHT22;26861;51.824;4.682;2024-02-23T10:29:18;14.20;65.40
41116;DHT22;26861;51.824;4.682;2024-02-23T10:31:45;14.10;65.30
41116;DHT22;26861;51.824;4.682;2024-02-23T10:34:12;14.10;65.50
41116;DHT22;26861;51.824;4.682;2024-02-23T10:36:42;14.00;65.50
41116;DHT22;26861;51.824;4.682;2024-02-23T10:39:08;14.00;65.70
41116;DHT22;26861;51.824;4.682;2024-02-23T10:41:35;14.00;65.50
41116;DHT22;26861;51.824;4.682;2024-02-23T10:44:01;14.00;65.30
41116;DHT22;26861;51.824;4.682;2024-02-23T10:46:29;14.00;65.20
41116;DHT22;26861;51.824;4.682;2024-02-23T10:48:56;14.10;65.50
41116;DHT22;26861;51.824;4.682;2024-02-23T10:51:23;14.10;65.50
41116;DHT22;26861;51.824;4.682;2024-02-23T10:53:50;14.10;65.50
41116;DHT22;26861;51.824;4.682;2024-02-23T10:56:17;14.20;64.30
41116;DHT22;26861;51.824;4.682;2024-02-23T10:58:43;14.10;65.20
41116;DHT22;26861;51.824;4.682;2024-02-23T11:01:09;14.20;64.70
41116;DHT22;26861;51.824;4.682;2024-02-23T11:03:36;14.20;64.50
41116;DHT22;26861;51.824;4.682;2024-02-23T11:06:06;14.30;65.00
41116;DHT22;26861;51.824;4.682;2024-02-23T11:08:32;14.30;60.30
41116;DHT22;26861;51.824;4.682;2024-02-23T11:11:06;14.40;64.90
41116;DHT22;26861;51.824;4.682;2024-02-23T11:13:36;14.30;64.30
41116;DHT22;26861;51.824;4.682;2024-02-23T11:16:05;14.40;60.00
41116;DHT22;26861;51.824;4.682;2024-02-23T11:18:31;14.50;63.80
41116;DHT22;26861;51.824;4.682;2024-02-23T11:21:00;14.60;64.40
41116;DHT22;26861;51.824;4.682;2024-02-23T11:23:27;14.50;64.50
41116;DHT22;26861;51.824;4.682;2024-02-23T11:26:04;14.60;63.80
41116;DHT22;26861;51.824;4.682;2024-02-23T11:28:29;14.60;59.90
41116;DHT22;26861;51.824;4.682;2024-02-23T11:30:55;14.60;64.50
41116;DHT22;26861;51.824;4.682;2024-02-23T11:33:27;14.70;64.70
41116;DHT22;26861;51.824;4.682;2024-02-23T11:35:52;14.60;60.20
41116;DHT22;26861;51.824;4.682;2024-02-23T11:38:19;14.50;64.90
41116;DHT22;26861;51.824;4.682;2024-02-23T11:40:49;14.50;65.20
41116;DHT22;26861;51.824;4.682;2024-02-23T11:43:17;14.50;65.20
41116;DHT22;26861;51.824;4.682;2024-02-23T11:45:46;14.50;65.20
41116;DHT22;26861;51.824;4.682;2024-02-23T11:48:12;14.60;65.80
41116;DHT22;26861;51.824;4.682;2024-02-23T11:50:37;14.50;65.70
41116;DHT22;26861;51.824;4.682;2024-02-23T11:53:03;14.80;65.50
41116;DHT22;26861;51.824;4.682;2024-02-23T11:55:31;13.10;64.70
41116;DHT22;26861;51.824;4.682;2024-02-23T11:57:57;14.80;64.70
41116;DHT22;26861;51.824;4.682;2024-02-23T12:00:23;14.90;64.50
41116;DHT22;26861;51.824;4.682;2024-02-23T12:02:48;15.40;63.40
41116;DHT22;26861;51.824;4.682;2024-02-23T12:05:15;15.20;63.70
41116;DHT22;26861;51.824;4.682;2024-02-23T12:07:41;15.30;63.50
41116;DHT22;26861;51.824;4.682;2024-02-23T12:10:07;15.50;63.30
41116;DHT22;26861;51.824;4.682;2024-02-23T12:12:32;15.50;61.40
41116;DHT22;26861;51.824;4.682;2024-02-23T12:14:58;15.60;62.50
41116;DHT22;26861;51.824;4.682;2024-02-23T12:17:24;15.70;62.00
41116;DHT22;26861;51.824;4.682;2024-02-23T12:20:01;15.80;62.20
41116;DHT22;26861;51.824;4.682;2024-02-23T12:22:27;15.90;57.90
41116;DHT22;26861;51.824;4.682;2024-02-23T12:24:52;15.80;62.10
41116;DHT22;26861;51.824;4.682;2024-02-23T12:27:18;15.90;62.40
41116;DHT22;26861;51.824;4.682;2024-02-23T12:29:51;15.80;62.50
41116;DHT22;26861;51.824;4.682;2024-02-23T12:32:19;15.70;58.20
41116;DHT22;26861;51.824;4.682;2024-02-23T12:34:44;15.90;62.10
41116;DHT22;26861;51.824;4.682;2024-02-23T12:37:10;15.90;62.60
41116;DHT22;26861;51.824;4.682;2024-02-23T12:39:35;15.90;62.70
41116;DHT22;26861;51.824;4.682;2024-02-23T12:42:01;15.80;62.70
41116;DHT22;26861;51.824;4.682;2024-02-23T12:44:27;15.80;63.10
41116;DHT22;26861;51.824;4.682;2024-02-23T12:46:53;15.70;63.40
41116;DHT22;26861;51.824;4.682;2024-02-23T12:49:19;15.60;64.10
41116;DHT22;26861;51.824;4.682;2024-02-23T12:51:45;15.60;63.60
41116;DHT22;26861;51.824;4.682;2024-02-23T12:54:10;15.50;63.90
41116;DHT22;26861;51.824;4.682;2024-02-23T12:56:36;15.60;64.10
41116;DHT22;26861;51.824;4.682;2024-02-23T12:59:01;15.40;64.20
41116;DHT22;26861;51.824;4.682;2024-02-23T13:01:26;15.30;64.10
41116;DHT22;26861;51.824;4.682;2024-02-23T13:03:52;15.40;64.60
41116;DHT22;26861;51.824;4.682;2024-02-23T13:06:18;15.30;64.40
41116;DHT22;26861;51.824;4.682;2024-02-23T13:08:44;15.30;64.70
41116;DHT22;26861;51.824;4.682;2024-02-23T13:11:09;15.40;64.90
41116;DHT22;26861;51.824;4.682;2024-02-23T13:13:35;15.20;64.90
41116;DHT22;26861;51.824;4.682;2024-02-23T13:16:00;15.30;65.00
41116;DHT22;26861;51.824;4.682;2024-02-23T13:18:26;15.20;64.90
41116;DHT22;26861;51.824;4.682;2024-02-23T13:20:51;15.30;65.10
41116;DHT22;26861;51.824;4.682;2024-02-23T13:23:17;15.30;64.90
41116;DHT22;26861;51.824;4.682;2024-02-23T13:25:44;15.30;64.80
41116;DHT22;26861;51.824;4.682;2024-02-23T13:28:09;15.30;65.10
41116;DHT22;26861;51.824;4.682;2024-02-23T13:30:35;15.30;65.00
41116;DHT22;26861;51.824;4.682;2024-02-23T13:33:01;15.30;65.20
41116;DHT22;26861;51.824;4.682;2024-02-23T13:35:27;15.50;65.20
41116;DHT22;26861;51.824;4.682;2024-02-23T13:37:53;15.30;64.90
41116;DHT22;26861;51.824;4.682;2024-02-23T13:40:18;15.20;65.30
41116;DHT22;26861;51.824;4.682;2024-02-23T13:42:44;15.30;65.20
41116;DHT22;26861;51.824;4.682;2024-02-23T13:45:18;13.60;62.80
41116;DHT22;26861;51.824;4.682;2024-02-23T13:47:44;15.30;64.70
41116;DHT22;26861;51.824;4.682;2024-02-23T13:50:20;15.50;64.90
41116;DHT22;26861;51.824;4.682;2024-02-23T13:52:46;15.40;64.50
41116;DHT22;26861;51.824;4.682;2024-02-23T13:55:11;15.50;64.30
41116;DHT22;26861;51.824;4.682;2024-02-23T13:57:39;15.40;60.80
41116;DHT22;26861;51.824;4.682;2024-02-23T14:00:05;15.40;64.40
41116;DHT22;26861;51.824;4.682;2024-02-23T14:02:33;15.40;64.40
41116;DHT22;26861;51.824;4.682;2024-02-23T14:05:00;15.40;63.80
41116;DHT22;26861;51.824;4.682;2024-02-23T14:07:28;15.30;65.00
41116;DHT22;26861;51.824;4.682;2024-02-23T14:09:53;15.30;65.10
41116;DHT22;26861;51.824;4.682;2024-02-23T14:12:18;15.40;64.60
41116;DHT22;26861;51.824;4.682;2024-02-23T14:14:45;15.20;65.00
41116;DHT22;26861;51.824;4.682;2024-02-23T14:17:10;15.20;65.10
41116;DHT22;26861;51.824;4.682;2024-02-23T14:19:35;15.20;65.00
41116;DHT22;26861;51.824;4.682;2024-02-23T14:22:01;15.30;65.00
41116;DHT22;26861;51.824;4.682;2024-02-23T14:24:27;15.20;65.10
41116;DHT22;26861;51.824;4.682;2024-02-23T14:26:53;15.50;64.90
41116;DHT22;26861;51.824;4.682;2024-02-23T14:29:19;15.20;65.30
41116;DHT22;26861;51.824;4.682;2024-02-23T14:34:47;15.00;60.60
41116;DHT22;26861;51.824;4.682;2024-02-23T14:37:13;15.30;65.60
41116;DHT22;26861;51.824;4.682;2024-02-23T14:39:39;15.40;64.90
41116;DHT22;26861;51.824;4.682;2024-02-23T14:42:04;15.10;65.40
41116;DHT22;26861;51.824;4.682;2024-02-23T14:44:30;15.10;65.10
41116;DHT22;26861;51.824;4.682;2024-02-23T14:46:55;15.60;65.50
41116;DHT22;26861;51.824;4.682;2024-02-23T14:49:21;15.70;65.70
41116;DHT22;26861;51.824;4.682;2024-02-23T14:51:47;15.80;65.50
41116;DHT22;26861;51.824;4.682;2024-02-23T14:54:14;15.70;65.60
41116;DHT22;26861;51.824;4.682;2024-02-23T14:56:39;15.20;64.80
41116;DHT22;26861;51.824;4.682;2024-02-23T14:59:05;15.60;65.10
41116;DHT22;26861;51.824;4.682;2024-02-23T15:01:37;15.20;64.50
41116;DHT22;26861;51.824;4.682;2024-02-23T15:04:04;15.90;65.30
41116;DHT22;26861;51.824;4.682;2024-02-23T15:06:30;15.20;64.80
41116;DHT22;26861;51.824;4.682;2024-02-23T15:08:55;15.20;65.20
41116;DHT22;26861;51.824;4.682;2024-02-23T15:11:21;15.70;65.40
41116;DHT22;26861;51.824;4.682;2024-02-23T15:13:47;15.80;65.20
41116;DHT22;26861;51.824;4.682;2024-02-23T15:16:13;15.10;64.80
41116;DHT22;26861;51.824;4.682;2024-02-23T15:18:39;15.40;65.30
41116;DHT22;26861;51.824;4.682;2024-02-23T15:21:04;15.20;65.30
41116;DHT22;26861;51.824;4.682;2024-02-23T15:23:30;15.70;65.60
41116;DHT22;26861;51.824;4.682;2024-02-23T15:25:55;15.70;65.40